Date,TemperatureHighF,TemperatureAvgF,TemperatureLowF,DewpointHighF,DewpointAvgF,DewpointLowF,HumidityHigh,HumidityAvg,HumidityLow,PressureMaxIn,PressureMinIn,WindSpeedMaxMPH,WindSpeedAvgMPH,GustSpeedMaxMPH,PrecipitationSumIn
2013-1-1,83,80,78,76,75,74,91,84,78,30.04,29.90,13,9,18,0.05
2013-1-2,85,82,79,76,75,74,89,80,73,30.00,29.92,17,8,24,0.00
2013-1-3,87,81,77,79,76,73,91,84,77,30.04,29.95,17,5,24,0.07
2013-1-4,86,81,77,78,75,73,92,83,76,30.11,30.00,20,8,27,0.14
2013-1-5,86,81,78,78,76,73,90,83,74,30.09,30.00,12,6,20,0.00
2013-1-6,82,80,78,77,76,73,93,86,78,30.07,29.97,17,8,25,0.05
2013-1-7,81,81,80,76,76,76,88,85,83,30.00,29.96,13,7,18,0.00
2013-1-8,85,81,78,80,76,74,91,87,81,30.01,29.92,16,10,24,0.07
2013-1-9,85,82,80,80,78,76,92,89,83,30.01,29.90,20,12,28,0.00
2013-1-10,83,81,78,79,78,75,94,90,85,30.04,29.94,21,13,28,0.11
2013-1-11,85,82,80,78,77,75,92,85,78,30.04,29.95,18,9,25,0.00
2013-1-12,84,81,79,77,76,74,89,84,78,29.99,29.92,18,9,25,0.00
2013-1-13,83,81,80,76,75,73,88,81,76,29.97,29.87,18,12,25,0.00
2013-1-14,85,82,79,76,75,74,86,81,74,30.02,29.94,14,10,23,0.00
2013-1-15,82,80,77,78,75,73,93,87,81,30.00,29.92,22,8,28,0.35
2013-1-16,85,81,79,76,74,73,87,79,73,30.01,29.90,8,5,18,0.00
2013-1-17,87,80,71,78,73,64,91,79,70,30.19,29.99,22,11,35,0.01
2013-1-18,77,73,69,66,62,60,80,70,61,30.26,30.13,18,13,31,0.00
2013-1-19,76,72,68,67,63,59,79,72,66,30.20,30.06,16,9,23,0.00
2013-1-20,82,75,70,70,67,64,88,75,60,30.14,30.00,13,7,20,0.04
2013-1-21,84,78,71,74,70,67,90,78,68,30.10,30.00,9,6,16,0.00
2013-1-22,84,77,73,76,72,70,91,84,74,30.13,30.01,10,5,16,2.84
2013-1-23,74,73,72,72,71,70,96,94,89,30.19,30.07,10,5,16,0.86
2013-1-24,76,73,71,74,71,69,98,94,89,30.19,30.11,12,7,20,0.08
2013-1-25,80,74,70,77,71,69,96,93,85,30.15,30.06,10,6,20,0.49
2013-1-26,78,75,72,76,74,71,98,96,90,30.11,30.02,16,6,24,0.61
2013-1-27,80,78,74,77,75,73,97,92,86,30.12,30.02,10,6,23,1.72
2013-1-28,84,80,77,78,77,75,95,89,83,30.11,30.02,12,6,17,0.07
2013-1-29,84,81,79,78,77,75,92,87,80,30.05,29.93,18,12,23,0.00
2013-1-30,83,81,79,77,76,74,91,85,78,29.96,29.86,21,12,27,0.00
2013-1-31,89,83,79,81,77,74,93,83,75,30.10,29.93,12,5,16,0.00
2013-2-1,80,78,76,75,74,73,92,88,82,30.14,30.05,10,7,20,0.73
2013-2-2,82,77,76,78,74,72,94,89,84,30.12,30.01,20,5,24,0.15
2013-2-3,81,77,74,79,75,72,98,91,85,30.11,30.00,18,8,31,0.86
2013-2-4,81,77,74,77,74,72,96,90,83,30.04,29.91,13,5,18,0.32
2013-2-5,83,80,77,77,76,74,93,88,80,29.98,29.91,9,6,15,0.00
2013-2-6,85,82,80,78,77,76,90,84,78,30.03,29.93,12,7,16,0.00
2013-2-7,84,81,79,78,77,75,93,87,81,29.99,29.90,15,11,20,0.00
2013-2-8,84,82,79,77,76,74,92,82,79,30.04,29.93,10,6,15,0.00
2013-2-9,85,81,78,76,74,72,89,80,71,30.08,29.99,12,5,17,0.00
2013-2-10,84,81,78,76,74,72,88,81,76,30.08,29.97,18,11,24,0.00
2013-2-11,84,81,80,78,77,76,90,87,80,30.04,29.95,20,14,28,0.00
2013-2-12,83,81,80,78,77,76,91,87,81,30.02,29.90,17,14,23,0.00
2013-2-13,83,81,80,77,76,75,91,84,77,29.92,29.83,20,13,25,0.00
2013-2-14,87,82,79,79,77,75,93,84,77,29.95,29.84,12,5,16,0.00
2013-2-15,90,83,78,81,77,75,92,81,65,29.99,29.88,8,4,15,0.00
2013-2-16,84,80,75,76,71,58,91,75,51,30.16,29.91,17,10,32,0.08
2013-2-17,82,77,70,63,60,55,63,56,46,30.23,30.12,18,10,32,0.00
2013-2-18,81,77,74,71,65,60,81,67,57,30.13,29.99,15,10,22,0.00
2013-2-19,84,79,77,77,74,71,91,84,78,30.04,29.95,14,8,20,5.73
2013-2-20,85,82,77,78,76,74,92,83,77,30.03,29.91,18,8,24,0.10
2013-2-21,84,81,77,78,77,75,94,87,81,29.95,29.85,20,13,29,0.01
2013-2-22,83,81,79,78,76,76,91,86,80,29.96,29.85,20,15,28,0.00
2013-2-23,84,81,80,78,77,76,91,86,80,29.92,29.83,22,17,29,0.00
2013-2-24,84,82,80,78,77,76,90,86,82,29.91,29.78,17,13,22,0.00
2013-2-25,84,81,79,79,77,76,95,89,83,29.83,29.64,21,13,28,0.00
2013-2-26,89,83,79,82,80,78,98,91,80,29.89,29.71,8,3,12,0.00
2013-2-27,89,83,79,82,79,77,96,88,78,29.94,29.84,13,4,16,0.00
2013-2-28,86,82,79,78,76,75,90,82,77,30.00,29.87,8,4,12,0.00
2013-3-1,81,76,75,76,72,67,93,88,75,30.01,29.88,17,11,27,0.22
2013-3-2,80,76,70,63,56,51,71,51,44,30.22,30.10,20,12,32,0.00
2013-3-3,79,76,74,59,56,52,61,50,42,30.24,30.11,12,5,20,0.00
2013-3-4,80,74,69,65,61,58,75,63,55,30.18,30.03,12,7,18,0.00
2013-3-5,80,77,75,66,64,61,68,64,57,30.08,29.98,13,8,20,0.00
2013-3-6,86,80,73,75,67,63,81,66,50,30.17,30.04,12,5,16,0.00
2013-3-7,85,79,74,72,66,64,80,65,56,30.18,30.07,8,4,13,0.00
2013-3-8,82,79,76,73,68,64,82,71,64,30.12,30.02,13,6,20,0.02
2013-3-9,82,79,75,69,65,63,73,63,53,30.08,29.95,17,7,23,0.00
2013-3-10,82,80,77,77,74,68,90,84,72,29.96,29.81,20,13,26,0.00
2013-3-11,85,81,79,79,77,76,94,88,82,29.92,29.79,18,10,25,0.00
2013-3-12,80,78,75,78,75,72,95,91,88,30.05,29.88,14,10,23,0.01
2013-3-13,78,76,73,72,70,66,90,83,74,30.13,30.01,14,9,24,0.00
2013-3-14,82,77,73,70,66,63,79,69,57,30.18,30.07,15,11,24,0.00
2013-3-15,84,76,72,67,64,61,77,67,57,30.18,30.08,15,9,22,0.00
2013-3-16,82,80,77,72,68,65,81,67,62,30.07,29.95,10,7,15,0.00
2013-3-17,82,80,77,78,76,72,94,87,81,29.99,29.85,15,10,20,0.00
2013-3-18,83,81,80,79,77,76,94,88,80,29.93,29.81,16,12,23,0.00
2013-3-19,87,83,79,80,78,77,94,87,78,29.93,29.82,16,7,22,0.00
2013-3-20,86,83,80,79,78,77,92,85,80,29.91,29.80,12,7,17,0.00
2013-3-21,85,82,79,80,78,77,94,89,82,29.92,29.79,13,7,20,0.00
2013-3-22,82,80,79,79,78,77,94,92,89,29.86,29.78,16,12,22,0.00
2013-3-23,83,81,80,79,78,77,94,89,82,29.84,29.70,21,14,26,0.00
2013-3-24,87,83,80,83,80,78,98,92,85,29.77,29.63,12,5,17,0.00
2013-3-25,89,84,80,82,79,76,95,84,71,29.96,29.72,12,5,25,0.00
2013-3-26,81,78,76,76,72,67,87,82,75,30.16,29.93,17,12,28,0.04
2013-3-27,85,78,74,71,67,65,80,70,57,30.20,30.09,16,9,24,0.00
2013-3-28,81,77,74,72,68,66,84,74,64,30.17,30.08,12,6,20,0.02
2013-3-29,84,79,75,70,66,64,78,65,52,30.17,30.06,9,5,15,0.00
2013-3-30,84,79,77,74,71,70,81,76,70,30.09,30.00,12,6,20,0.02
2013-3-31,85,81,78,78,75,72,93,84,77,30.02,29.92,12,7,15,0.00
2013-4-1,85,82,80,80,79,77,94,90,84,29.99,29.90,13,9,18,0.00
2013-4-2,85,82,80,80,78,77,94,90,84,29.99,29.90,17,11,24,0.00
2013-4-3,83,81,80,79,78,77,94,90,83,29.92,29.80,22,14,31,0.00
2013-4-4,86,82,80,80,79,78,95,90,82,29.99,29.82,12,7,17,0.00
2013-4-5,83,79,77,80,76,73,94,89,83,30.06,29.89,15,7,26,1.01
2013-4-6,84,78,72,73,66,60,89,68,46,30.10,29.95,15,8,24,0.00
2013-4-7,83,80,76,70,67,64,79,66,53,30.02,29.90,9,6,15,0.00
2013-4-8,83,82,80,78,77,77,90,88,83,29.93,29.86,14,10,21,0.00
2013-4-9,83,82,80,78,77,76,92,87,81,29.93,29.81,20,14,27,0.00
2013-4-10,83,82,80,79,78,77,94,89,83,29.88,29.74,20,15,27,0.00
2013-4-11,82,81,80,80,79,78,96,94,92,29.78,29.70,20,15,26,0.00
2013-4-12,89,83,80,84,81,79,98,92,81,29.84,29.74,16,6,22,0.00
2013-4-13,84,82,80,81,80,78,99,92,86,29.88,29.76,14,9,20,0.00
2013-4-14,84,82,80,80,78,77,95,90,83,29.83,29.72,20,14,27,0.00
2013-4-15,85,82,80,81,80,79,97,92,87,29.88,29.76,14,9,20,0.00
2013-4-16,84,82,81,81,80,79,96,94,90,29.93,29.84,16,11,22,0.00
2013-4-17,84,84,84,81,81,81,90,90,90,29.93,29.93,15,15,0,0.00
2013-4-18,84,84,84,81,81,81,90,90,90,29.93,29.93,15,15,0,0.00
2013-4-19,84,82,81,78,77,76,89,85,79,29.93,29.58,14,9,26,0.00
2013-4-20,87,83,78,79,77,74,89,84,77,30.02,29.89,13,6,18,0.00
2013-4-21,88,81,76,77,75,72,89,82,64,30.03,29.91,13,7,18,0.00
2013-4-22,86,83,80,78,76,75,87,82,73,30.01,29.89,14,7,19,0.00
2013-4-23,87,83,80,78,76,75,88,82,73,30.00,29.89,14,8,18,0.00
2013-4-24,86,83,81,78,76,74,84,80,74,30.01,29.90,14,10,19,0.00
2013-4-25,87,83,81,78,76,74,85,79,71,30.08,29.98,16,9,20,0.00
2013-4-26,85,82,78,77,74,71,85,78,71,30.11,30.02,18,9,24,0.00
2013-4-27,86,82,79,76,74,72,85,78,66,30.06,29.94,20,8,23,0.00
2013-4-28,85,82,80,76,74,73,84,78,71,29.95,29.83,18,9,24,0.00
2013-4-29,85,83,81,77,75,74,85,79,71,29.88,29.78,20,13,23,0.00
2013-4-30,85,83,82,79,77,75,89,83,76,29.86,29.75,20,12,25,0.00
2013-5-1,86,84,82,80,79,78,93,87,80,29.83,29.72,17,10,23,0.00
2013-5-2,89,83,78,81,79,72,93,86,73,29.87,29.72,16,5,30,0.00
2013-5-3,90,81,76,76,74,71,91,79,57,29.97,29.83,14,7,22,0.00
2013-5-4,86,80,75,73,69,66,84,71,55,30.02,29.88,17,10,25,0.00
2013-5-5,86,81,75,76,73,69,86,77,70,29.97,29.89,12,6,20,0.00
2013-5-6,85,82,81,76,74,72,82,76,71,30.04,29.94,14,8,16,0.00
2013-5-7,85,82,81,76,74,72,83,77,72,30.05,29.95,17,9,21,0.00
2013-5-8,86,82,80,75,73,71,81,73,61,30.08,29.98,14,8,19,0.00
2013-5-9,85,83,80,78,75,71,86,78,71,30.05,29.96,14,9,18,0.00
2013-5-10,86,83,82,79,78,76,88,83,78,30.01,29.89,22,14,26,0.00
2013-5-11,85,83,82,80,78,76,87,84,82,29.96,29.86,22,15,26,0.00
2013-5-12,86,83,82,78,77,75,85,81,77,30.00,29.89,20,12,25,0.00
2013-5-13,87,83,81,77,76,74,83,77,71,30.08,29.93,15,10,23,0.00
2013-5-14,88,84,80,77,75,73,86,77,66,30.09,30.03,12,6,18,0.00
2013-5-15,87,83,80,76,75,74,85,77,66,30.08,29.97,14,7,18,0.00
2013-5-16,85,83,81,76,74,73,84,77,68,30.00,29.91,13,8,16,0.00
2013-5-17,86,83,81,78,76,73,83,79,73,29.98,29.90,18,10,23,0.00
2013-5-18,87,84,82,79,77,76,86,81,77,29.98,29.89,18,9,23,0.00
2013-5-19,86,84,82,79,78,76,86,82,78,29.94,29.85,20,14,25,0.00
2013-5-20,85,83,82,78,77,76,87,82,77,29.92,29.82,22,14,28,0.00
2013-5-21,86,84,82,78,78,76,87,82,75,29.88,29.76,25,15,28,0.00
2013-5-22,86,84,83,80,79,77,89,84,80,29.88,29.76,21,14,26,0.00
2013-5-23,87,84,83,80,79,78,88,85,81,29.94,29.85,20,11,23,0.00
2013-5-24,87,84,78,79,78,76,93,84,77,30.00,29.89,20,10,32,0.27
2013-5-25,86,83,78,79,78,73,90,83,78,30.03,29.94,18,11,32,0.09
2013-5-26,87,84,80,79,77,76,88,81,74,30.01,29.92,18,12,25,0.00
2013-5-27,83,81,76,78,77,73,93,86,81,29.99,29.88,25,8,41,0.69
2013-5-28,80,78,75,78,76,73,96,91,86,29.95,29.85,22,9,31,1.11
2013-5-29,84,82,78,79,77,75,92,85,79,29.89,29.81,20,12,24,0.00
2013-5-30,85,84,82,80,79,78,89,86,82,29.87,29.77,20,14,28,0.00
2013-5-31,87,84,83,80,79,78,89,85,80,29.86,29.77,17,11,25,0.00
2013-6-1,86,84,83,80,80,79,91,87,83,29.85,29.74,18,12,24,0.00
2013-6-2,86,82,80,82,79,76,92,90,86,29.85,29.78,13,5,21,0.00
2013-6-3,85,81,76,78,76,74,93,85,77,29.87,29.75,24,5,38,0.02
2013-6-4,90,84,80,80,78,76,91,84,68,29.85,29.76,13,5,19,0.00
2013-6-5,90,85,82,81,80,78,91,86,70,29.82,29.72,10,6,14,0.01
2013-6-6,90,84,80,81,78,76,91,83,67,29.84,29.74,13,6,15,0.00
2013-6-7,87,84,82,82,81,80,93,89,83,29.89,29.78,15,7,18,0.06
2013-6-8,86,85,83,81,80,78,87,84,81,29.93,29.83,18,14,25,0.00
2013-6-9,86,84,83,80,78,78,87,83,78,29.95,29.87,18,12,24,0.00
2013-6-10,86,85,83,80,79,77,88,82,78,29.96,29.89,18,11,24,0.00
2013-6-11,86,84,82,80,79,78,87,84,79,30.02,29.92,17,12,24,0.01
2013-6-12,87,84,83,81,79,78,87,83,78,30.03,29.96,17,11,21,0.01
2013-6-13,89,84,81,80,78,76,89,82,72,30.00,29.93,18,10,23,0.00
2013-6-14,88,85,83,79,78,76,85,81,74,29.97,29.88,14,8,18,0.00
2013-6-15,87,85,83,80,78,77,85,81,75,30.00,29.91,17,10,23,0.00
2013-6-16,86,81,76,80,77,74,96,89,81,29.99,29.91,20,7,26,1.26
2013-6-17,82,79,76,79,76,72,96,90,75,29.94,29.86,32,14,44,1.59
2013-6-18,83,81,75,79,77,72,95,88,83,29.95,29.85,29,14,43,0.79
2013-6-19,85,83,78,80,78,74,93,86,82,29.94,29.84,29,15,36,0.19
2013-6-20,85,82,77,80,78,74,93,87,81,29.98,29.88,29,14,42,0.33
2013-6-21,87,84,81,80,79,75,90,84,79,29.99,29.91,18,11,30,0.01
2013-6-22,86,84,80,80,78,76,90,83,76,29.99,29.92,17,10,26,0.13
2013-6-23,86,84,82,79,78,76,86,82,77,30.01,29.92,20,13,25,0.00
2013-6-24,88,84,82,80,78,76,86,82,75,30.04,29.97,15,8,23,0.00
2013-6-25,86,82,77,80,77,74,94,85,78,30.06,29.94,22,6,31,0.44
2013-6-26,87,84,82,79,78,76,88,82,73,30.00,29.93,12,6,16,0.00
2013-6-27,86,83,82,79,78,76,87,83,79,29.98,29.89,10,5,15,0.13
2013-6-28,88,85,82,78,77,76,83,78,72,29.96,29.86,9,5,12,0.01
2013-6-29,88,85,81,78,77,76,85,79,70,29.92,29.81,12,5,14,0.00
2013-6-30,89,85,82,79,77,75,84,77,67,29.89,29.78,10,4,14,0.00
2013-7-1,90,85,82,81,78,77,88,81,67,29.91,29.81,13,5,16,0.00
2013-7-2,84,82,74,79,78,72,94,87,82,29.95,29.86,16,6,25,0.69
2013-7-3,86,83,75,81,78,73,95,86,81,29.95,29.85,23,13,30,1.03
2013-7-4,84,81,74,79,78,73,95,88,82,30.00,29.88,23,11,30,1.18
2013-7-5,86,84,83,80,79,77,87,84,78,29.97,29.87,20,13,28,0.00
2013-7-6,86,84,83,80,78,77,86,82,78,29.95,29.87,22,15,29,0.00
2013-7-7,87,84,83,79,77,76,86,80,74,29.97,29.87,22,12,29,0.00
2013-7-8,88,84,82,79,78,77,86,80,72,30.04,29.92,12,5,18,0.00
2013-7-9,89,85,82,80,78,77,85,81,75,30.06,29.97,13,7,18,0.00
2013-7-10,84,81,78,79,77,74,92,86,77,30.03,29.94,16,5,25,1.55
2013-7-11,85,80,74,78,75,72,94,86,74,30.04,29.88,16,6,28,0.23
2013-7-12,88,84,78,80,78,75,92,83,75,29.94,29.85,13,5,19,0.00
2013-7-13,86,80,74,79,76,72,96,89,78,29.98,29.85,16,4,25,2.17
2013-7-14,83,79,75,79,76,73,96,90,84,29.96,29.86,31,10,38,0.94
2013-7-15,86,84,82,80,78,77,89,85,80,29.93,29.87,17,12,23,0.01
2013-7-16,87,84,82,79,78,77,87,83,76,29.99,29.89,14,8,25,0.00
2013-7-17,88,84,82,81,79,77,89,83,74,30.00,29.91,17,8,22,0.00
2013-7-18,86,82,78,80,78,74,93,86,81,30.01,29.93,14,7,24,0.49
2013-7-19,88,84,80,80,78,77,92,83,77,30.00,29.93,16,11,22,0.17
2013-7-20,87,84,80,81,79,76,91,85,78,29.98,29.89,17,11,31,0.11
2013-7-21,87,85,79,80,78,74,89,82,77,30.02,29.92,21,14,32,0.06
2013-7-22,87,85,82,80,78,74,88,81,76,30.04,29.95,17,11,24,0.06
2013-7-23,86,84,79,80,78,75,90,84,77,30.02,29.92,20,12,32,0.04
2013-7-24,88,85,83,81,79,78,87,82,78,29.98,29.92,16,11,21,0.00
2013-7-25,88,85,83,81,79,78,87,82,78,30.07,29.93,15,9,20,0.00
2013-7-26,89,85,83,80,79,78,86,81,75,30.07,29.99,16,8,21,0.00
2013-7-27,88,85,83,80,78,77,86,80,74,30.03,29.95,13,7,15,0.00
2013-7-28,88,85,83,80,78,77,85,80,74,30.01,29.92,14,7,18,0.00
2013-7-29,89,85,83,80,78,77,86,80,74,30.08,29.94,17,9,23,0.22
2013-7-30,89,86,84,81,79,77,86,80,73,30.08,29.99,17,8,23,0.00
2013-7-31,90,85,81,81,79,77,89,81,71,30.05,29.95,7,3,13,0.00
2013-8-1,90,85,79,79,78,74,90,80,68,29.99,29.90,10,5,14,0.00
2013-8-2,87,85,84,80,78,76,83,79,73,30.02,29.91,20,10,25,0.00
2013-8-3,87,85,82,80,78,75,84,80,76,30.03,29.94,17,13,24,0.02
2013-8-4,88,86,85,81,80,78,87,83,76,30.03,29.94,18,13,26,0.02
2013-8-5,88,86,83,81,79,76,88,82,76,30.03,29.95,14,8,21,0.00
2013-8-6,90,86,84,81,80,78,87,82,74,30.01,29.94,14,7,19,0.02
2013-8-7,89,86,83,80,78,78,85,79,72,29.98,29.88,9,4,13,0.00
2013-8-8,88,84,78,80,78,74,92,81,69,29.92,29.83,16,4,23,0.96
2013-8-9,89,85,83,79,78,76,85,79,71,29.93,29.82,15,7,20,0.04
2013-8-10,88,85,83,80,78,76,85,80,73,29.97,29.88,15,10,20,0.00
2013-8-11,86,84,81,80,79,77,89,84,79,29.98,29.89,23,11,29,0.06
2013-8-12,87,83,77,79,77,72,93,83,73,30.00,29.88,23,8,33,0.76
2013-8-13,89,84,77,80,78,73,90,82,73,29.96,29.84,12,4,15,0.14
2013-8-14,88,82,76,78,77,73,93,85,72,29.91,29.80,16,5,24,0.03
2013-8-15,83,80,76,78,77,73,95,91,84,29.92,29.81,12,4,13,0.48
2013-8-16,87,84,79,80,79,75,92,85,75,29.93,29.83,20,9,26,0.73
2013-8-17,87,85,84,79,78,77,85,80,73,29.95,29.87,21,14,26,0.00
2013-8-18,88,85,83,79,78,77,84,80,74,29.96,29.90,13,8,19,0.00
2013-8-19,88,85,83,80,78,76,85,80,75,29.94,29.84,13,8,16,0.00
2013-8-20,88,86,84,80,79,77,85,81,75,29.97,29.86,15,8,20,0.00
2013-8-21,89,86,83,80,79,78,87,81,74,29.97,29.88,10,6,15,0.00
2013-8-22,90,86,83,81,79,78,87,80,72,29.95,29.82,15,6,19,0.00
2013-8-23,84,82,77,79,77,74,93,85,79,29.87,29.77,24,11,37,0.55
2013-8-24,85,82,76,80,78,74,96,86,80,29.93,29.79,32,17,43,3.63
2013-8-25,87,85,83,80,79,78,87,83,78,29.99,29.90,25,18,32,0.00
2013-8-26,88,85,83,80,78,77,84,80,74,30.02,29.92,23,10,28,0.00
2013-8-27,90,85,83,80,78,76,85,79,70,29.98,29.89,12,5,15,0.00
2013-8-28,89,83,78,79,77,74,91,81,67,30.02,29.90,24,6,33,0.28
2013-8-29,87,82,78,79,77,74,91,83,75,30.00,29.90,15,4,25,0.07
2013-8-30,86,82,78,79,78,74,95,87,79,29.94,29.89,18,7,36,0.79
2013-8-31,83,82,77,78,77,74,92,86,82,29.92,29.88,10,4,16,0.02
2013-9-1,85,85,84,80,79,78,86,84,82,29.90,29.89,16,11,20,0.35
2013-9-2,86,81,76,80,76,74,95,86,71,29.95,29.83,25,5,36,0.29
2013-9-3,82,80,77,78,76,74,95,88,80,29.95,29.82,13,3,15,0.34
2013-9-4,85,82,78,80,78,76,93,87,78,29.95,29.85,13,5,19,0.06
2013-9-5,88,85,82,80,78,77,88,81,74,29.96,29.88,13,7,19,0.00
2013-9-6,88,85,83,80,79,77,89,82,76,29.95,29.83,13,5,20,0.00
2013-9-7,88,84,79,81,79,76,92,84,75,29.94,29.81,10,4,19,0.24
2013-9-8,89,85,80,81,78,75,90,81,72,29.89,29.77,10,4,15,0.00
2013-9-9,87,83,80,79,78,76,91,84,76,29.88,29.78,15,7,26,0.24
2013-9-10,83,81,79,79,78,76,95,90,84,29.89,29.78,17,6,21,0.64
2013-9-11,84,80,75,80,77,74,96,91,84,29.86,29.77,20,7,24,1.57
2013-9-12,85,83,79,80,79,73,92,86,81,29.83,29.72,21,14,28,0.02
2013-9-13,85,83,81,80,79,75,91,86,81,29.79,29.68,16,10,21,0.06
2013-9-14,87,84,83,81,79,78,89,84,78,29.84,29.71,17,12,23,0.00
2013-9-15,86,83,78,80,78,77,96,86,77,29.87,29.77,24,8,30,0.59
2013-9-16,80,79,77,78,77,76,96,93,88,29.85,29.75,17,6,30,1.11
2013-9-17,82,79,77,79,77,76,97,93,81,29.81,29.70,17,7,24,1.10
2013-9-18,85,81,77,81,78,75,95,90,82,29.85,29.70,20,8,25,0.03
2013-9-19,85,84,84,81,80,78,90,87,82,29.88,29.77,25,16,32,0.00
2013-9-20,87,84,83,81,80,78,89,86,82,29.87,29.76,18,14,22,0.00
2013-9-21,87,84,81,81,80,75,91,86,79,29.80,29.67,18,8,28,0.00
2013-9-22,91,85,78,82,79,74,92,84,73,29.82,29.68,17,5,25,0.02
2013-9-23,90,85,79,83,80,76,91,85,74,29.87,29.77,13,5,15,0.00
2013-9-24,88,86,84,82,81,80,89,85,80,29.90,29.79,17,11,22,0.00
2013-9-25,88,86,84,82,81,79,89,86,82,29.89,29.79,18,12,22,0.00
2013-9-26,89,85,84,81,79,78,86,82,77,29.91,29.81,16,9,20,0.00
2013-9-27,89,86,84,81,79,78,86,82,76,29.93,29.84,13,7,18,0.00
2013-9-28,89,86,84,81,79,78,86,81,74,29.95,29.86,14,8,18,0.00
2013-9-29,89,86,82,80,79,77,86,80,71,29.96,29.84,9,4,13,0.00
2013-9-30,88,84,79,79,77,75,89,79,70,29.92,29.83,10,4,14,0.00
2013-10-1,89,85,83,78,77,75,81,76,68,29.93,29.83,9,5,14,0.00
2013-10-2,88,84,81,80,78,77,91,82,71,29.89,29.78,12,5,16,0.00
2013-10-3,88,83,75,79,78,73,95,85,74,29.97,29.80,16,6,23,0.50
2013-10-4,88,86,84,81,80,78,86,83,78,29.95,29.86,16,11,20,0.00
2013-10-5,88,86,82,81,80,78,87,83,77,29.92,29.83,22,9,29,0.00
2013-10-6,89,85,82,82,80,78,87,84,78,29.92,29.82,15,9,19,0.00
2013-10-7,87,83,80,80,78,75,92,86,73,29.96,29.84,22,5,25,0.01
2013-10-8,86,80,74,79,77,73,96,89,78,29.97,29.86,14,6,25,0.41
2013-10-9,84,81,76,79,77,74,95,87,78,30.02,29.87,18,7,28,0.65
2013-10-10,89,83,80,81,78,74,88,84,75,29.97,29.88,13,7,22,0.01
2013-10-11,89,85,83,80,79,77,86,82,75,29.95,29.85,15,8,20,0.00
2013-10-12,88,85,81,80,78,76,88,81,74,29.97,29.87,15,8,19,0.02
2013-10-13,90,85,82,80,78,76,88,78,68,29.99,29.88,13,6,21,0.03
2013-10-14,89,84,80,77,75,71,85,76,64,29.96,29.86,10,6,19,0.01
2013-10-15,88,84,80,79,76,74,87,80,70,29.94,29.85,9,5,16,0.00
2013-10-16,87,83,78,79,78,74,92,83,74,29.95,29.85,10,5,25,0.36
2013-10-17,88,85,80,80,77,74,87,78,71,29.97,29.85,12,6,19,0.00
2013-10-18,89,85,82,78,76,75,82,75,67,29.95,29.84,10,5,17,0.00
2013-10-19,88,85,83,80,79,77,86,82,76,29.94,29.83,14,7,19,0.00
2013-10-20,88,85,81,80,79,76,87,82,76,29.94,29.83,14,7,22,0.01
2013-10-21,87,85,82,80,78,76,87,81,74,29.94,29.84,16,10,23,0.00
2013-10-22,87,85,84,80,79,78,86,81,77,29.91,29.80,18,11,23,0.00
2013-10-23,88,85,83,80,79,76,89,83,75,29.90,29.79,15,8,21,0.01
2013-10-24,87,84,78,81,78,74,93,83,75,29.95,29.84,22,10,32,0.15
2013-10-25,85,80,75,78,76,72,95,88,76,30.02,29.90,24,8,36,1.16
2013-10-26,84,79,75,78,76,73,96,91,84,29.99,29.87,22,9,37,1.53
2013-10-27,83,80,75,78,76,73,96,89,79,29.95,29.85,35,8,37,1.50
2013-10-28,84,82,78,79,77,75,93,86,81,29.99,29.87,17,9,31,0.40
2013-10-29,85,83,77,80,78,74,94,87,83,30.05,29.91,17,7,29,0.36
2013-10-30,86,83,80,80,78,76,91,86,80,30.02,29.89,16,9,23,0.27
2013-10-31,87,83,78,80,79,75,94,87,80,29.98,29.85,20,7,25,0.40
2013-11-1,88,85,83,81,79,78,88,84,80,29.93,29.82,14,10,18,0.00
2013-11-2,88,84,83,80,78,77,88,81,74,29.94,29.83,15,6,18,0.00
2013-11-3,83,77,72,78,74,70,97,92,84,29.98,29.87,12,5,19,1.94
2013-11-4,86,79,75,75,74,72,95,85,68,29.99,29.89,10,5,14,0.00
2013-11-5,88,81,77,77,75,73,94,84,65,29.97,29.85,9,5,15,0.00
2013-11-6,86,81,78,79,77,75,94,88,74,29.94,29.83,13,8,20,0.29
2013-11-7,84,81,78,79,78,75,94,90,83,29.99,29.86,14,8,20,0.11
2013-11-8,80,78,74,78,76,72,96,94,91,29.96,29.85,16,7,21,1.14
2013-11-9,82,78,76,79,76,75,96,94,90,29.98,29.88,12,6,18,0.57
2013-11-10,81,77,74,78,76,74,98,96,91,30.03,29.90,17,4,25,3.18
2013-11-11,84,79,75,80,76,74,97,93,84,30.01,29.89,13,5,21,1.52
2013-11-12,87,82,78,80,78,75,95,87,76,30.00,29.88,12,4,21,0.08
2013-11-13,83,79,76,78,76,73,95,91,80,29.98,29.88,15,7,21,0.19
2013-11-14,82,79,75,78,76,72,96,91,84,29.98,29.86,15,6,29,1.61
2013-11-15,82,80,75,78,76,73,96,90,84,29.97,29.83,22,7,31,1.44
2013-11-16,84,80,76,79,77,74,97,90,82,29.98,29.86,10,5,15,0.19
2013-11-17,86,84,82,80,78,76,88,83,78,29.98,29.86,12,6,16,0.00
2013-11-18,88,84,79,78,76,73,89,80,69,29.95,29.85,6,2,15,0.07
2013-11-19,87,82,74,79,77,72,95,83,75,29.92,29.82,12,4,26,0.97
2013-11-20,87,83,81,78,77,75,85,81,74,29.96,29.87,16,5,21,0.01
2013-11-21,86,83,79,79,77,74,89,82,76,30.01,29.92,15,7,19,0.06
2013-11-22,84,81,76,78,77,74,93,87,80,30.03,29.91,23,7,30,0.67
2013-11-23,85,81,76,79,76,73,95,85,75,30.00,29.89,15,5,20,0.37
2013-11-24,84,80,76,78,75,73,96,86,71,30.01,29.92,10,6,16,0.23
2013-11-25,84,79,75,77,75,72,96,88,75,30.02,29.89,14,2,20,0.48
2013-11-26,88,81,77,78,76,74,95,85,71,29.98,29.85,15,4,24,0.03
2013-11-27,78,74,71,74,66,62,92,76,62,30.19,29.93,25,17,39,0.03
2013-11-28,77,73,67,67,65,64,90,77,66,30.21,30.09,18,12,26,0.00
2013-11-29,77,73,70,68,66,63,83,77,71,30.20,30.10,20,15,30,0.00
2013-11-30,78,72,69,72,68,65,95,88,82,30.15,30.04,18,14,28,0.03
2013-12-1,80,75,72,74,72,70,96,90,80,30.09,29.98,15,10,23,0.00
2013-12-2,82,75,72,74,72,71,97,91,77,29.99,29.87,13,6,18,0.31
2013-12-3,84,79,74,78,75,72,97,88,78,29.93,29.80,22,8,26,0.07
2013-12-4,85,83,82,80,78,77,87,85,83,29.93,29.83,20,13,25,0.00
2013-12-5,85,83,82,78,77,76,86,82,78,30.00,29.90,20,15,24,0.00
2013-12-6,85,83,82,78,77,76,87,83,80,30.03,29.89,20,13,25,0.00
2013-12-7,85,82,76,78,76,73,93,83,77,30.08,29.97,24,8,29,0.33
2013-12-8,86,80,77,77,75,72,93,83,71,30.07,29.96,13,4,18,0.03
2013-12-9,85,82,78,77,75,73,92,81,73,30.04,29.94,9,4,14,0.03
2013-12-10,86,80,76,77,74,71,91,82,70,30.08,29.98,12,5,21,0.16
2013-12-11,79,76,75,75,74,74,97,93,87,30.05,29.99,16,9,23,1.10
2013-12-12,79,76,74,76,74,73,96,95,89,30.13,30.01,16,5,19,1.34
2013-12-13,84,79,74,77,75,73,97,87,77,30.01,29.90,18,10,23,1.36
2013-12-17,79,77,73,75,74,72,95,91,85,30.12,30.01,14,9,20,0.06
2013-12-18,80,75,73,75,73,71,95,92,84,30.14,30.03,16,10,24,0.42
2013-12-19,83,78,74,77,75,72,97,90,80,30.06,29.95,23,7,26,0.19
2013-12-20,84,81,77,77,76,74,91,84,78,30.00,29.90,24,10,31,0.05
2013-12-21,84,82,80,78,77,75,91,84,79,29.97,29.86,23,15,31,0.00
2013-12-22,84,83,82,78,77,76,86,83,78,29.99,29.86,23,17,30,0.00
2013-12-23,84,82,78,78,76,71,86,82,75,30.10,29.96,20,11,25,0.00
2013-12-24,86,81,78,77,74,72,89,80,72,30.14,30.00,16,7,23,0.01
2013-12-25,83,78,74,75,73,71,92,86,74,30.09,29.97,14,8,22,0.11
2013-12-26,82,77,73,76,72,69,95,86,72,30.07,29.95,13,7,19,0.05
2013-12-27,82,76,75,76,74,70,95,92,80,30.07,29.95,10,6,15,0.06
2013-12-28,81,76,73,75,73,72,95,90,80,30.06,29.93,13,6,20,0.00
2013-12-29,80,76,74,75,73,72,94,91,81,30.04,29.93,12,6,18,0.00
2013-12-30,84,80,76,77,76,73,95,86,77,30.04,29.94,18,5,30,0.18
2013-12-31,84,81,76,78,76,72,90,86,80,30.09,29.97,15,7,25,0.37
2014-1-1,84,81,76,77,75,72,91,83,76,30.06,29.92,18,6,26,0.05
2014-1-2,82,78,73,76,74,70,94,88,78,30.01,29.90,14,5,21,0.63